sensor_id;sensor_type;location;lat;lon;timestamp;temperature;humidity
12374;DHT22;6251;51.762;8.660;2022-12-18T05:02:05;-10.50;99.90
12374;DHT22;6251;51.762;8.660;2022-12-18T05:12:06;-10.40;99.90
12374;DHT22;6251;51.762;8.660;2022-12-18T05:22:07;-10.40;99.90
12374;DHT22;6251;51.762;8.660;2022-12-18T05:32:07;-10.40;99.90
12374;DHT22;6251;51.762;8.660;2022-12-18T05:42:08;-10.20;99.90
12374;DHT22;6251;51.762;8.660;2022-12-18T05:52:09;-10.20;99.90
12374;DHT22;6251;51.762;8.660;2022-12-18T06:02:41;-10.10;99.90
12374;DHT22;6251;51.762;8.660;2022-12-18T06:12:41;-10.00;99.90
12374;DHT22;6251;51.762;8.660;2022-12-18T06:22:42;-10.00;99.90
12374;DHT22;6251;51.762;8.660;2022-12-18T06:32:42;-9.90;99.90
12374;DHT22;6251;51.762;8.660;2022-12-18T06:42:43;-9.90;99.90
12374;DHT22;6251;51.762;8.660;2022-12-18T06:52:43;-9.80;99.90
12374;DHT22;6251;51.762;8.660;2022-12-18T07:02:44;-9.80;99.90
12374;DHT22;6251;51.762;8.660;2022-12-18T07:12:45;-9.70;99.90
12374;DHT22;6251;51.762;8.660;2022-12-18T07:22:45;-9.40;99.90
12374;DHT22;6251;51.762;8.660;2022-12-18T07:32:46;-9.20;99.90
12374;DHT22;6251;51.762;8.660;2022-12-18T07:42:46;-8.90;99.90
12374;DHT22;6251;51.762;8.660;2022-12-18T07:52:47;-8.50;99.90
12374;DHT22;6251;51.762;8.660;2022-12-18T08:02:47;-8.20;99.90
12374;DHT22;6251;51.762;8.660;2022-12-18T08:12:51;-8.00;99.90
12374;DHT22;6251;51.762;8.660;2022-12-18T08:22:52;-7.80;99.90
12374;DHT22;6251;51.762;8.660;2022-12-18T08:32:52;-7.40;99.90
12374;DHT22;6251;51.762;8.660;2022-12-18T08:42:54;-7.00;99.90
12374;DHT22;6251;51.762;8.660;2022-12-18T08:53:13;-6.60;99.90
12374;DHT22;6251;51.762;8.660;2022-12-18T09:03:15;-6.30;99.90
12374;DHT22;6251;51.762;8.660;2022-12-18T09:13:17;-5.80;99.90
12374;DHT22;6251;51.762;8.660;2022-12-18T09:23:18;-5.30;99.90
12374;DHT22;6251;51.762;8.660;2022-12-18T09:33:18;-4.70;99.90
12374;DHT22;6251;51.762;8.660;2022-12-18T09:43:26;-4.30;99.90
12374;DHT22;6251;51.762;8.660;2022-12-18T09:53:35;-4.10;99.90
12374;DHT22;6251;51.762;8.660;2022-12-18T10:03:38;-3.90;99.90
12374;DHT22;6251;51.762;8.660;2022-12-18T10:13:52;-3.80;99.90
12374;DHT22;6251;51.762;8.660;2022-12-18T10:33:54;-3.40;99.90
12374;DHT22;6251;51.762;8.660;2022-12-18T10:44:17;-3.20;99.90
12374;DHT22;6251;51.762;8.660;2022-12-18T10:54:22;-2.90;99.90
12374;DHT22;6251;51.762;8.660;2022-12-18T11:04:27;-2.70;99.90
12374;DHT22;6251;51.762;8.660;2022-12-18T11:14:33;-2.60;99.90
12374;DHT22;6251;51.762;8.660;2022-12-18T11:24:35;-2.50;99.90
12374;DHT22;6251;51.762;8.660;2022-12-18T11:34:36;-2.30;99.90
12374;DHT22;6251;51.762;8.660;2022-12-18T11:45:00;-2.00;99.90
12374;DHT22;6251;51.762;8.660;2022-12-18T11:55:10;-1.80;99.90
12374;DHT22;6251;51.762;8.660;2022-12-18T12:05:36;-1.50;99.90
12374;DHT22;6251;51.762;8.660;2022-12-18T12:15:54;-1.30;99.90
12374;DHT22;6251;51.762;8.660;2022-12-18T12:26:07;-1.20;99.90
12374;DHT22;6251;51.762;8.660;2022-12-18T12:36:37;-1.10;99.90
12374;DHT22;6251;51.762;8.660;2022-12-18T12:46:43;-1.10;99.90
12374;DHT22;6251;51.762;8.660;2022-12-18T12:57:12;-1.00;99.90
12374;DHT22;6251;51.762;8.660;2022-12-18T13:07:27;-0.90;99.90
12374;DHT22;6251;51.762;8.660;2022-12-18T13:17:30;-0.80;99.90
12374;DHT22;6251;51.762;8.660;2022-12-18T13:37:51;-0.80;99.90
12374;DHT22;6251;51.762;8.660;2022-12-18T13:47:53;-0.80;99.90
12374;DHT22;6251;51.762;8.660;2022-12-18T13:58:04;-0.80;99.90
12374;DHT22;6251;51.762;8.660;2022-12-18T14:08:08;-0.80;99.90
12374;DHT22;6251;51.762;8.660;2022-12-18T14:28:22;-0.90;99.90
12374;DHT22;6251;51.762;8.660;2022-12-18T14:48:42;-1.00;99.90
12374;DHT22;6251;51.762;8.660;2022-12-18T14:58:53;-1.10;99.90
12374;DHT22;6251;51.762;8.660;2022-12-18T15:08:54;-1.30;99.90
12374;DHT22;6251;51.762;8.660;2022-12-18T15:18:55;-1.30;99.90
12374;DHT22;6251;51.762;8.660;2022-12-18T15:28:56;-1.30;99.90
12374;DHT22;6251;51.762;8.660;2022-12-18T15:39:00;-1.20;99.90
12374;DHT22;6251;51.762;8.660;2022-12-18T15:49:02;-1.10;99.90
12374;DHT22;6251;51.762;8.660;2022-12-18T15:59:08;-1.00;99.90
12374;DHT22;6251;51.762;8.660;2022-12-18T16:09:10;-1.00;99.90
12374;DHT22;6251;51.762;8.660;2022-12-18T16:19:10;-1.10;99.90
12374;DHT22;6251;51.762;8.660;2022-12-18T16:29:25;-1.00;99.90
12374;DHT22;6251;51.762;8.660;2022-12-18T16:39:28;-1.00;99.90
12374;DHT22;6251;51.762;8.660;2022-12-18T16:49:29;-1.10;99.90
12374;DHT22;6251;51.762;8.660;2022-12-18T16:59:29;-1.20;99.90
12374;DHT22;6251;51.762;8.660;2022-12-18T17:09:30;-1.10;99.90
12374;DHT22;6251;51.762;8.660;2022-12-18T17:19:31;-1.10;99.90
12374;DHT22;6251;51.762;8.660;2022-12-18T17:29:31;-1.10;99.90
12374;DHT22;6251;51.762;8.660;2022-12-18T17:39:32;-1.20;99.90
12374;DHT22;6251;51.762;8.660;2022-12-18T17:49:33;-1.20;99.90
12374;DHT22;6251;51.762;8.660;2022-12-18T17:59:33;-1.30;99.90
12374;DHT22;6251;51.762;8.660;2022-12-18T18:20:23;-1.30;99.90
12374;DHT22;6251;51.762;8.660;2022-12-18T18:30:24;-1.30;99.90
12374;DHT22;6251;51.762;8.660;2022-12-18T18:40:24;-1.30;99.90
12374;DHT22;6251;51.762;8.660;2022-12-18T18:50:25;-1.20;99.90
12374;DHT22;6251;51.762;8.660;2022-12-18T19:00:26;-1.20;99.90
12374;DHT22;6251;51.762;8.660;2022-12-18T19:10:26;-1.30;99.90
12374;DHT22;6251;51.762;8.660;2022-12-18T19:20:27;-1.50;99.90
12374;DHT22;6251;51.762;8.660;2022-12-18T19:30:27;-1.50;99.90
12374;DHT22;6251;51.762;8.660;2022-12-18T19:40:28;-1.40;99.90
12374;DHT22;6251;51.762;8.660;2022-12-18T19:50:29;-1.50;99.90
12374;DHT22;6251;51.762;8.660;2022-12-18T20:00:29;-1.50;99.90
12374;DHT22;6251;51.762;8.660;2022-12-18T20:10:30;-1.60;99.90
12374;DHT22;6251;51.762;8.660;2022-12-18T20:20:31;-1.70;99.90
12374;DHT22;6251;51.762;8.660;2022-12-18T20:30:32;-1.70;99.90
12374;DHT22;6251;51.762;8.660;2022-12-18T20:40:32;-1.70;99.90
12374;DHT22;6251;51.762;8.660;2022-12-18T20:50:38;-1.70;99.90
12374;DHT22;6251;51.762;8.660;2022-12-18T21:00:39;-1.60;99.90
12374;DHT22;6251;51.762;8.660;2022-12-18T21:10:39;-1.40;99.90
12374;DHT22;6251;51.762;8.660;2022-12-18T21:20:41;-1.40;99.90
12374;DHT22;6251;51.762;8.660;2022-12-18T21:30:42;-1.30;99.90
12374;DHT22;6251;51.762;8.660;2022-12-18T21:40:43;-1.30;99.90
12374;DHT22;6251;51.762;8.660;2022-12-18T21:50:43;-1.30;99.90
12374;DHT22;6251;51.762;8.660;2022-12-18T22:00:44;-1.30;99.90
12374;DHT22;6251;51.762;8.660;2022-12-18T22:10:44;-1.30;99.90
